createdAt,value
2023-03-22T00:00:39.685Z,11.97
2023-03-22T00:03:06.789Z,11.99
2023-03-22T00:05:33.412Z,12.01
2023-03-22T00:08:00.225Z,12.01
2023-03-22T00:10:29.345Z,11.99
2023-03-22T00:12:55.995Z,11.98
2023-03-22T00:15:23.171Z,11.94
2023-03-22T00:17:53.020Z,11.89
2023-03-22T00:20:20.867Z,11.86
2023-03-22T00:22:47.748Z,11.84
2023-03-22T00:25:14.687Z,11.81
2023-03-22T00:27:41.448Z,11.79
2023-03-22T00:30:10.606Z,11.79
2023-03-22T00:32:38.723Z,11.80
2023-03-22T00:35:06.464Z,11.79
2023-03-22T00:37:34.107Z,11.77
2023-03-22T00:40:02.930Z,11.79
2023-03-22T00:42:29.570Z,11.85
2023-03-22T00:44:56.282Z,11.89
2023-03-22T00:47:23.615Z,11.87
2023-03-22T00:49:50.326Z,11.82
2023-03-22T00:52:17.015Z,11.78
2023-03-22T00:54:44.039Z,11.80
2023-03-22T00:57:13.031Z,11.82
2023-03-22T00:59:40.144Z,11.80
2023-03-22T01:02:07.435Z,11.81
2023-03-22T01:04:35.639Z,11.80
2023-03-22T01:07:05.739Z,11.80
2023-03-22T01:09:34.026Z,11.78
2023-03-22T01:12:02.204Z,11.67
2023-03-22T01:14:29.307Z,11.51
2023-03-22T01:16:57.835Z,11.31
2023-03-22T01:19:24.693Z,11.15
2023-03-22T01:21:51.387Z,11.00
2023-03-22T01:24:18.151Z,10.86
2023-03-22T01:26:44.821Z,10.75
2023-03-22T01:29:11.763Z,10.68
2023-03-22T01:31:38.656Z,10.60
2023-03-22T01:34:05.461Z,10.49
2023-03-22T01:36:32.264Z,10.39
2023-03-22T01:38:59.599Z,10.32
2023-03-22T01:41:27.815Z,10.25
2023-03-22T01:44:18.901Z,10.20
2023-03-22T01:46:47.873Z,10.14
2023-03-22T01:49:27.522Z,10.12
2023-03-22T01:51:57.823Z,10.04
2023-03-22T01:54:53.034Z,9.97
2023-03-22T01:57:19.902Z,9.88
2023-03-22T01:59:47.547Z,9.81
2023-03-22T02:02:19.409Z,9.77
2023-03-22T02:04:50.944Z,9.71
2023-03-22T02:07:26.266Z,9.64
2023-03-22T02:09:53.678Z,9.55
2023-03-22T02:12:42.526Z,9.48
2023-03-22T02:15:18.302Z,9.43
2023-03-22T02:18:06.594Z,9.34
2023-03-22T02:21:02.492Z,9.26
2023-03-22T02:23:35.372Z,9.20
2023-03-22T02:26:17.078Z,9.18
2023-03-22T02:28:57.204Z,9.15
2023-03-22T02:31:47.624Z,9.10
2023-03-22T02:34:38.646Z,9.01
2023-03-22T02:37:11.467Z,8.96
2023-03-22T02:39:56.889Z,8.96
2023-03-22T02:43:02.850Z,8.92
2023-03-22T02:45:41.485Z,8.86
2023-03-22T02:48:23.066Z,8.83
2023-03-22T02:50:56.636Z,8.79
2023-03-22T02:53:42.381Z,8.75
2023-03-22T02:56:36.288Z,8.74
2023-03-22T02:59:06.451Z,8.69
2023-03-22T03:01:52.461Z,8.63
2023-03-22T03:04:42.770Z,8.60
2023-03-22T03:07:14.413Z,8.53
2023-03-22T03:09:43.024Z,8.53
2023-03-22T03:12:18.847Z,8.51
2023-03-22T03:14:45.891Z,8.49
2023-03-22T03:17:21.872Z,8.45
2023-03-22T03:20:02.753Z,8.40
2023-03-22T03:22:45.735Z,8.36
2023-03-22T03:25:25.689Z,8.29
2023-03-22T03:28:30.438Z,8.26
2023-03-22T03:31:08.321Z,8.21
2023-03-22T03:33:40.256Z,8.19
2023-03-22T03:36:12.144Z,8.16
2023-03-22T03:38:44.620Z,8.12
2023-03-22T03:41:16.601Z,8.08
2023-03-22T03:43:45.913Z,8.05
2023-03-22T03:46:12.785Z,8.04
2023-03-22T03:48:43.055Z,8.04
2023-03-22T03:51:10.074Z,8.02
2023-03-22T03:53:36.857Z,7.99
2023-03-22T03:56:03.653Z,7.94
2023-03-22T03:58:31.072Z,7.93
2023-03-22T04:00:57.838Z,7.91
2023-03-22T04:03:24.687Z,7.87
2023-03-22T04:05:51.807Z,7.85
2023-03-22T04:08:18.614Z,7.84
2023-03-22T04:10:49.737Z,7.80
2023-03-22T04:13:16.981Z,7.77
2023-03-22T04:15:43.710Z,7.71
2023-03-22T04:18:11.433Z,7.69
2023-03-22T04:20:42.123Z,7.72
2023-03-22T04:23:11.979Z,7.70
2023-03-22T04:25:38.813Z,7.70
2023-03-22T04:28:05.957Z,7.68
2023-03-22T04:30:36.424Z,7.67
2023-03-22T04:33:07.350Z,7.61
2023-03-22T04:35:34.870Z,7.59
2023-03-22T04:38:01.694Z,7.56
2023-03-22T04:40:31.787Z,7.57
2023-03-22T04:42:59.294Z,7.54
2023-03-22T04:45:29.304Z,7.51
2023-03-22T04:47:56.546Z,7.49
2023-03-22T04:50:23.211Z,7.49
2023-03-22T04:52:50.350Z,7.44
2023-03-22T04:55:17.677Z,7.44
2023-03-22T04:57:44.400Z,7.46
2023-03-22T05:00:11.790Z,7.46
2023-03-22T05:02:41.547Z,7.43
2023-03-22T05:05:08.591Z,7.42
2023-03-22T05:07:35.372Z,7.42
2023-03-22T05:10:03.014Z,7.39
2023-03-22T05:12:29.704Z,7.38
2023-03-22T05:14:56.739Z,7.35
2023-03-22T05:17:23.850Z,7.35
2023-03-22T05:19:51.960Z,7.34
2023-03-22T05:22:19.588Z,7.33
2023-03-22T05:24:46.962Z,7.30
2023-03-22T05:27:14.411Z,7.28
2023-03-22T05:29:45.162Z,7.27
2023-03-22T05:32:12.403Z,7.28
2023-03-22T05:34:40.160Z,7.26
2023-03-22T05:37:07.079Z,7.28
2023-03-22T05:39:33.970Z,7.26
2023-03-22T05:43:00.582Z,7.26
2023-03-22T05:46:27.184Z,7.23
2023-03-22T05:53:47.801Z,7.24
2023-03-22T05:57:14.364Z,7.23
2023-03-22T06:04:23.110Z,7.24
2023-03-22T06:06:50.548Z,7.23
2023-03-22T06:09:18.122Z,7.20
2023-03-22T06:11:45.149Z,7.21
2023-03-22T06:14:12.462Z,7.19
2023-03-22T06:16:39.204Z,7.22
2023-03-22T06:19:06.027Z,7.20
2023-03-22T06:21:32.728Z,7.19
2023-03-22T06:23:59.383Z,7.19
2023-03-22T06:26:26.546Z,7.19
2023-03-22T06:28:53.305Z,7.20
2023-03-22T06:31:20.025Z,7.23
2023-03-22T06:33:46.924Z,7.27
2023-03-22T06:36:13.625Z,7.29
2023-03-22T06:38:40.389Z,7.31
2023-03-22T06:41:07.851Z,7.31
2023-03-22T06:43:34.598Z,7.32
2023-03-22T06:46:01.305Z,7.29
2023-03-22T06:48:28.541Z,7.29
2023-03-22T06:50:55.244Z,7.30
2023-03-22T06:53:21.913Z,7.29
2023-03-22T06:55:48.921Z,7.30
2023-03-22T06:58:15.642Z,7.29
2023-03-22T07:00:50.628Z,7.32
2023-03-22T07:03:17.324Z,7.36
2023-03-22T07:05:44.137Z,7.40
2023-03-22T07:08:10.989Z,7.44
2023-03-22T07:10:38.308Z,7.45
2023-03-22T07:13:05.366Z,7.46
2023-03-22T07:15:33.252Z,7.46
2023-03-22T07:18:02.925Z,7.50
2023-03-22T07:20:29.614Z,7.51
2023-03-22T07:22:56.630Z,7.56
2023-03-22T07:25:23.297Z,7.58
2023-03-22T07:27:50.011Z,7.59
2023-03-22T07:30:16.866Z,7.64
2023-03-22T07:32:43.636Z,7.70
2023-03-22T07:35:10.388Z,7.70
2023-03-22T07:37:37.297Z,7.71
2023-03-22T07:40:05.300Z,7.72
2023-03-22T07:42:31.979Z,7.74
2023-03-22T07:44:58.755Z,7.76
2023-03-22T07:47:39.947Z,7.79
2023-03-22T07:50:07.666Z,7.83
2023-03-22T07:52:34.504Z,7.87
2023-03-22T07:55:01.239Z,7.91
2023-03-22T07:57:28.032Z,7.93
2023-03-22T07:59:54.741Z,7.98
2023-03-22T08:02:21.751Z,8.05
2023-03-22T08:04:53.170Z,8.15
2023-03-22T08:07:21.258Z,8.24
2023-03-22T08:09:48.017Z,8.31
2023-03-22T08:12:14.937Z,8.40
2023-03-22T08:14:41.742Z,8.43
2023-03-22T08:17:08.451Z,8.48
2023-03-22T08:19:35.700Z,8.52
2023-03-22T08:22:02.506Z,8.58
2023-03-22T08:24:29.226Z,8.61
2023-03-22T08:26:56.557Z,8.64
2023-03-22T08:29:23.616Z,8.69
2023-03-22T08:31:51.955Z,8.73
2023-03-22T08:34:19.191Z,8.79
2023-03-22T08:36:46.351Z,8.88
2023-03-22T08:39:13.666Z,9.00
2023-03-22T08:41:40.633Z,9.10
2023-03-22T08:44:07.608Z,9.22
2023-03-22T08:46:34.411Z,9.31
2023-03-22T08:49:03.168Z,9.45
2023-03-22T08:51:31.413Z,9.62
2023-03-22T08:54:00.269Z,9.75
2023-03-22T08:56:27.554Z,9.84
2023-03-22T08:58:54.259Z,9.90
2023-03-22T09:01:28.006Z,9.91
2023-03-22T09:03:54.938Z,9.87
2023-03-22T09:06:21.674Z,9.91
2023-03-22T09:08:52.302Z,9.97
2023-03-22T09:11:19.560Z,10.02
2023-03-22T09:13:46.426Z,10.06
2023-03-22T09:16:13.869Z,10.12
2023-03-22T09:18:41.145Z,10.16
2023-03-22T09:26:02.432Z,10.44
2023-03-22T09:29:25.669Z,10.55
2023-03-22T09:31:53.748Z,10.62
2023-03-22T09:34:20.627Z,10.69
2023-03-22T09:36:48.059Z,10.73
2023-03-22T09:39:16.426Z,10.77
2023-03-22T09:41:51.661Z,10.84
2023-03-22T09:44:27.196Z,10.80
2023-03-22T09:46:56.908Z,10.77
2023-03-22T09:49:50.447Z,10.75
2023-03-22T09:52:18.279Z,10.71
2023-03-22T09:54:47.430Z,10.72
2023-03-22T09:57:29.021Z,10.79
2023-03-22T10:00:11.862Z,10.84
2023-03-22T10:02:58.445Z,10.86
2023-03-22T10:05:50.303Z,10.85
2023-03-22T10:08:41.283Z,10.82
2023-03-22T10:11:21.473Z,10.73
2023-03-22T10:13:57.609Z,10.77
2023-03-22T10:16:33.349Z,11.03
2023-03-22T10:19:17.746Z,11.38
2023-03-22T10:21:48.587Z,11.78
2023-03-22T10:24:30.075Z,12.15
2023-03-22T10:26:57.419Z,12.18
2023-03-22T10:29:32.276Z,12.22
2023-03-22T10:32:14.064Z,12.34
2023-03-22T10:34:40.857Z,12.43
2023-03-22T10:37:14.827Z,12.50
2023-03-22T10:39:46.712Z,12.64
2023-03-22T10:42:18.039Z,12.76
2023-03-22T10:44:52.194Z,12.80
2023-03-22T10:47:29.756Z,12.86
2023-03-22T10:49:59.243Z,12.94
2023-03-22T10:52:35.065Z,13.01
2023-03-22T10:55:04.691Z,13.13
2023-03-22T10:57:31.452Z,13.16
2023-03-22T10:59:58.438Z,13.13
2023-03-22T11:02:33.078Z,13.30
2023-03-22T11:05:03.747Z,13.43
2023-03-22T11:07:35.108Z,13.56
2023-03-22T11:10:11.132Z,13.75
2023-03-22T11:12:44.960Z,13.63
2023-03-22T11:15:28.347Z,13.72
2023-03-22T11:18:01.044Z,13.66
2023-03-22T11:20:29.952Z,13.73
2023-03-22T11:23:02.763Z,13.94
2023-03-22T11:25:36.006Z,14.05
2023-03-22T11:28:05.622Z,14.16
2023-03-22T11:30:33.829Z,14.20
2023-03-22T11:33:21.300Z,14.22
2023-03-22T11:35:57.848Z,14.24
2023-03-22T11:38:32.855Z,14.64
2023-03-22T11:41:02.630Z,14.68
2023-03-22T11:43:52.834Z,14.67
2023-03-22T11:46:21.538Z,14.51
2023-03-22T11:48:52.051Z,14.21
2023-03-22T11:51:29.987Z,14.63
2023-03-22T11:54:27.684Z,14.80
2023-03-22T11:56:58.356Z,14.80
2023-03-22T11:59:28.788Z,15.47
2023-03-22T12:02:05.376Z,16.25
2023-03-22T12:04:38.363Z,16.90
2023-03-22T12:07:13.792Z,17.20
2023-03-22T12:10:18.823Z,17.51
2023-03-22T12:12:52.709Z,17.29
2023-03-22T12:15:23.538Z,17.53
2023-03-22T12:18:13.538Z,17.25
2023-03-22T12:20:50.153Z,16.91
2023-03-22T12:23:20.072Z,16.82
2023-03-22T12:25:53.105Z,16.39
2023-03-22T12:28:25.528Z,16.20
2023-03-22T12:30:56.491Z,16.46
2023-03-22T12:33:31.259Z,16.60
2023-03-22T12:36:00.851Z,18.12
2023-03-22T12:38:41.359Z,19.36
2023-03-22T12:41:36.564Z,18.89
2023-03-22T12:45:06.192Z,18.60
2023-03-22T12:47:43.588Z,20.05
2023-03-22T12:50:55.561Z,21.56
2023-03-22T12:53:27.022Z,23.03
2023-03-22T12:55:56.348Z,24.21
2023-03-22T12:58:26.177Z,25.20
2023-03-22T13:00:58.559Z,25.66
2023-03-22T13:03:46.195Z,25.93
2023-03-22T13:06:34.495Z,25.53
2023-03-22T13:09:34.905Z,25.36
2023-03-22T13:12:25.339Z,26.37
2023-03-22T13:14:58.859Z,27.60
2023-03-22T13:17:26.172Z,28.47
2023-03-22T13:19:55.065Z,29.13
2023-03-22T13:22:39.562Z,29.53
2023-03-22T13:25:29.136Z,28.89
2023-03-22T13:28:22.150Z,29.52
2023-03-22T13:30:57.526Z,30.04
2023-03-22T13:33:28.224Z,30.26
2023-03-22T13:35:59.302Z,30.73
2023-03-22T13:38:35.093Z,31.21
2023-03-22T13:41:22.970Z,31.31
2023-03-22T13:43:52.033Z,31.62
2023-03-22T13:46:21.526Z,31.94
2023-03-22T13:48:48.830Z,32.49
2023-03-22T13:51:30.270Z,31.96
2023-03-22T13:54:18.301Z,32.30
2023-03-22T13:56:54.479Z,31.81
2023-03-22T13:59:30.338Z,32.18
2023-03-22T14:02:11.203Z,32.86
2023-03-22T14:04:53.430Z,31.52
2023-03-22T14:07:44.670Z,32.08
2023-03-22T14:10:20.047Z,31.77
2023-03-22T14:13:22.071Z,28.73
2023-03-22T14:15:55.906Z,27.61
2023-03-22T14:18:31.744Z,28.40
2023-03-22T14:21:22.002Z,25.66
